Time;durP1;ratioP1;P1;durP2;ratioP2;P2;SDS_P1;SDS_P2;PMS_P1;PMS_P2;Temp;Humidity;BMP_temperature;BMP_pressure;BME280_temperature;BME280_humidity;BME280_pressure;Samples;Min_cycle;Max_cycle;Signal;HPM_P1;HPM_P2
2021/11/17 02:27:03;;;;;;;39.30;33.30;;;;;;;;;;4982215;28;25021;-63
2021/11/17 02:29:38;;;;;;;37.42;32.15;;;;;;;;;;4979240;28;24448;-63
2021/11/17 02:32:10;;;;;;;38.88;32.00;;;;;;;;;;4973475;28;24461;-63
2021/11/17 02:34:43;;;;;;;36.22;30.60;;;;;;;;;;4974027;28;24421;-63
2021/11/17 02:37:27;;;;;;;37.10;30.42;;;;;;;;;;4978120;28;24468;-63
2021/11/17 02:40:31;;;;;;;37.13;30.80;;;;;;;;;;4981235;28;24528;-62
2021/11/17 02:43:12;;;;;;;39.97;32.20;;;;;;;;;;4916492;29;24429;-62
2021/11/17 02:45:55;;;;;;;38.55;32.38;;;;;;;;;;4916121;29;24902;-62
2021/11/17 02:48:26;;;;;;;37.30;31.43;;;;;;;;;;4956327;28;24961;-63
2021/11/17 02:50:59;;;;;;;38.70;31.92;;;;;;;;;;4976945;28;24413;-62
2021/11/17 02:53:39;;;;;;;37.87;31.23;;;;;;;;;;4981648;28;24473;-62
2021/11/17 02:56:13;;;;;;;36.60;31.25;;;;;;;;;;4997621;28;24764;-63
2021/11/17 02:58:47;;;;;;;36.78;30.48;;;;;;;;;;4987726;28;25124;-63
2021/11/17 03:01:28;;;;;;;37.70;30.60;;;;;;;;;;4985725;28;24610;-63
2021/11/17 03:04:18;;;;;;;35.55;30.58;;;;;;;;;;4990602;28;24470;-63
2021/11/17 03:06:45;;;;;;;37.30;32.10;;;;;;;;;;4984586;28;24483;-63
2021/11/17 03:09:29;;;;;;;39.20;32.60;;;;;;;;;;4984434;28;24425;-63
2021/11/17 03:12:30;;;;;;;41.80;34.80;;;;;;;;;;4978402;28;24424;-63
2021/11/17 03:15:01;;;;;;;41.08;32.28;;;;;;;;;;4917556;29;24422;-62
2021/11/17 03:17:29;;;;;;;37.83;30.90;;;;;;;;;;4972740;28;24810;-62
2021/11/17 03:20:11;;;;;;;42.20;33.00;;;;;;;;;;4988610;28;24429;-61
2021/11/17 03:22:55;;;;;;;36.90;30.50;;;;;;;;;;4978520;28;24692;-61
2021/11/17 03:25:23;;;;;;;36.40;31.27;;;;;;;;;;4977996;28;24784;-61
2021/11/17 03:27:48;;;;;;;37.10;32.08;;;;;;;;;;4990352;28;24432;-61
2021/11/17 03:30:27;;;;;;;43.80;35.60;;;;;;;;;;4982878;28;24428;-64
2021/11/17 03:33:05;;;;;;;44.97;37.50;;;;;;;;;;4983517;28;24439;-61
2021/11/17 03:35:49;;;;;;;44.35;38.97;;;;;;;;;;4981250;28;25028;-64
2021/11/17 03:38:40;;;;;;;46.08;40.97;;;;;;;;;;4978838;28;24429;-61
2021/11/17 03:41:14;;;;;;;45.90;40.15;;;;;;;;;;4967514;28;24568;-61
2021/11/17 03:43:42;;;;;;;40.50;36.20;;;;;;;;;;4979492;28;24429;-62
2021/11/17 03:46:16;;;;;;;40.55;36.17;;;;;;;;;;4978426;28;24847;-62
2021/11/17 03:48:48;;;;;;;40.33;36.03;;;;;;;;;;4978619;28;24858;-62
2021/11/17 03:51:28;;;;;;;45.40;40.45;;;;;;;;;;4983037;28;24425;-62
2021/11/17 03:53:56;;;;;;;40.97;36.40;;;;;;;;;;4983314;28;24580;-62
2021/11/17 03:56:36;;;;;;;38.65;33.67;;;;;;;;;;4982552;28;24986;-61
2021/11/17 03:59:20;;;;;;;39.95;34.42;;;;;;;;;;4984050;28;24970;-61
2021/11/17 04:01:48;;;;;;;41.30;36.80;;;;;;;;;;4978934;28;24792;-61
2021/11/17 04:04:19;;;;;;;38.83;34.73;;;;;;;;;;4979364;28;25082;-62
2021/11/17 04:07:03;;;;;;;36.05;32.17;;;;;;;;;;4985729;28;24500;-62
2021/11/17 04:09:31;;;;;;;39.30;35.00;;;;;;;;;;4985474;28;24814;-62
2021/11/17 04:12:15;;;;;;;39.15;34.42;;;;;;;;;;4980278;28;24416;-62
2021/11/17 04:14:43;;;;;;;38.60;34.40;;;;;;;;;;4979906;28;24417;-62
2021/11/17 04:17:28;;;;;;;37.80;33.70;;;;;;;;;;4981993;28;25223;-62
2021/11/17 04:19:59;;;;;;;38.22;34.08;;;;;;;;;;4982347;28;25304;-62
2021/11/17 04:22:31;;;;;;;38.78;34.58;;;;;;;;;;4969559;28;24512;-62
2021/11/17 04:25:05;;;;;;;41.72;35.92;;;;;;;;;;4976682;28;24512;-62
2021/11/17 04:27:55;;;;;;;40.47;33.50;;;;;;;;;;4979612;28;24418;-62
2021/11/17 04:30:31;;;;;;;48.13;36.60;;;;;;;;;;4983365;28;25172;-62
2021/11/17 04:33:06;;;;;;;46.85;36.40;;;;;;;;;;4982725;28;24592;-61
2021/11/17 04:35:32;;;;;;;44.17;34.80;;;;;;;;;;4977290;28;24421;-61
2021/11/17 04:38:15;;;;;;;44.47;34.60;;;;;;;;;;4982213;28;24455;-62
2021/11/17 04:40:49;;;;;;;46.87;37.07;;;;;;;;;;4983180;28;24550;-61
2021/11/17 04:43:14;;;;;;;48.28;35.10;;;;;;;;;;4967859;28;24452;-62
2021/11/17 04:45:49;;;;;;;48.40;35.00;;;;;;;;;;4975097;28;24578;-62
2021/11/17 04:48:20;;;;;;;46.13;33.90;;;;;;;;;;4978457;28;24496;-62
2021/11/17 04:50:56;;;;;;;43.03;32.92;;;;;;;;;;4983662;28;24425;-62
2021/11/17 04:53:30;;;;;;;43.00;33.25;;;;;;;;;;4980981;28;24459;-61
2021/11/17 04:56:08;;;;;;;43.15;33.00;;;;;;;;;;4977124;28;24463;-62
2021/11/17 04:58:42;;;;;;;46.13;35.27;;;;;;;;;;4978133;28;24432;-62
2021/11/17 05:01:07;;;;;;;43.97;34.95;;;;;;;;;;4993855;28;24814;-61
2021/11/17 05:03:56;;;;;;;44.55;32.47;;;;;;;;;;4981416;28;24459;-62
2021/11/17 05:06:27;;;;;;;48.38;35.50;;;;;;;;;;4962867;28;24516;-62
2021/11/17 05:08:58;;;;;;;50.15;36.83;;;;;;;;;;4981320;28;24429;-62
2021/11/17 05:11:35;;;;;;;46.25;33.10;;;;;;;;;;4978355;28;24425;-62
2021/11/17 05:14:06;;;;;;;45.33;32.25;;;;;;;;;;4981327;28;24950;-62
2021/11/17 05:17:04;;;;;;;47.60;33.05;;;;;;;;;;4979597;28;25017;-62
2021/11/17 05:19:43;;;;;;;42.47;31.50;;;;;;;;;;4935149;28;24464;-62
2021/11/17 05:22:11;;;;;;;43.35;30.20;;;;;;;;;;4979407;28;25264;-62
2021/11/17 05:24:46;;;;;;;47.00;32.50;;;;;;;;;;4982660;28;24443;-61
2021/11/17 05:27:31;;;;;;;46.25;32.70;;;;;;;;;;4980967;28;24499;-62
2021/11/17 05:29:56;;;;;;;44.13;31.90;;;;;;;;;;4980045;28;24792;-63
2021/11/17 05:32:40;;;;;;;46.30;32.60;;;;;;;;;;4978739;28;24923;-63
2021/11/17 05:35:11;;;;;;;44.72;33.10;;;;;;;;;;4994244;28;24994;-62
2021/11/17 05:37:55;;;;;;;41.38;32.20;;;;;;;;;;4975921;28;24426;-62
2021/11/17 05:40:20;;;;;;;43.10;31.45;;;;;;;;;;4979881;28;24465;-63
2021/11/17 05:42:56;;;;;;;44.97;31.70;;;;;;;;;;4985024;28;24858;-63
2021/11/17 05:45:30;;;;;;;44.40;33.05;;;;;;;;;;4975807;28;25390;-62
2021/11/17 05:47:55;;;;;;;45.42;33.20;;;;;;;;;;4981384;28;24421;-63
2021/11/17 05:50:30;;;;;;;44.97;32.83;;;;;;;;;;4978200;28;24432;-62
2021/11/17 05:52:58;;;;;;;46.15;33.80;;;;;;;;;;4981926;28;24519;-62
2021/11/17 05:55:23;;;;;;;45.70;32.38;;;;;;;;;;4978967;28;24448;-62
2021/11/17 05:57:48;;;;;;;45.70;31.38;;;;;;;;;;4981783;28;24433;-62
2021/11/17 06:00:27;;;;;;;48.72;33.05;;;;;;;;;;4982656;28;24431;-62
2021/11/17 06:03:02;;;;;;;45.22;31.80;;;;;;;;;;4976435;28;24528;-62
2021/11/17 06:05:27;;;;;;;45.95;33.50;;;;;;;;;;4975928;28;24429;-63
2021/11/17 06:07:52;;;;;;;46.57;33.53;;;;;;;;;;4984262;28;24795;-63
2021/11/17 06:10:21;;;;;;;43.77;32.40;;;;;;;;;;4980924;28;25309;-63
2021/11/17 06:12:46;;;;;;;49.20;33.65;;;;;;;;;;4979683;28;24436;-64
2021/11/17 06:15:13;;;;;;;47.50;33.40;;;;;;;;;;4977218;28;24830;-63
2021/11/17 06:17:38;;;;;;;47.17;32.72;;;;;;;;;;4976075;28;24421;-64
2021/11/17 06:20:04;;;;;;;49.13;32.10;;;;;;;;;;4987903;28;24487;-64
2021/11/17 06:22:31;;;;;;;53.88;36.22;;;;;;;;;;4975985;28;24432;-62
2021/11/17 06:24:58;;;;;;;49.33;34.30;;;;;;;;;;4986776;28;24970;-62
2021/11/17 06:27:25;;;;;;;46.28;33.80;;;;;;;;;;4981884;28;24413;-63
2021/11/17 06:29:53;;;;;;;47.15;31.88;;;;;;;;;;4966048;28;24465;-62
2021/11/17 06:32:19;;;;;;;45.70;33.10;;;;;;;;;;4982266;28;24421;-65
2021/11/17 06:34:45;;;;;;;49.80;32.90;;;;;;;;;;4989897;28;24424;-64
2021/11/17 06:37:12;;;;;;;49.13;32.83;;;;;;;;;;4983938;28;24978;-64
2021/11/17 06:39:39;;;;;;;46.95;33.72;;;;;;;;;;4982327;28;24563;-64
2021/11/17 06:42:05;;;;;;;44.88;31.40;;;;;;;;;;4986389;28;24421;-64
2021/11/17 06:44:31;;;;;;;47.20;32.05;;;;;;;;;;4986567;28;24482;-63
2021/11/17 06:46:56;;;;;;;44.60;29.47;;;;;;;;;;4988980;28;25028;-62
2021/11/17 06:49:21;;;;;;;45.55;30.38;;;;;;;;;;4986075;28;24412;-62
2021/11/17 06:51:47;;;;;;;43.30;29.97;;;;;;;;;;4994215;28;24425;-62
2021/11/17 06:54:12;;;;;;;48.77;32.47;;;;;;;;;;4983132;28;24440;-62
2021/11/17 06:56:37;;;;;;;48.70;30.87;;;;;;;;;;4985157;28;25099;-62
2021/11/17 06:59:02;;;;;;;42.67;28.93;;;;;;;;;;4982842;28;24399;-62
2021/11/17 07:01:28;;;;;;;42.27;27.97;;;;;;;;;;4985580;28;24532;-62
2021/11/17 07:03:54;;;;;;;45.47;29.80;;;;;;;;;;4980371;28;24479;-62
2021/11/17 07:06:19;;;;;;;41.43;27.33;;;;;;;;;;4981056;28;24945;-61
2021/11/17 07:08:44;;;;;;;41.17;27.10;;;;;;;;;;4982661;28;24420;-62
2021/11/17 07:11:09;;;;;;;39.50;26.53;;;;;;;;;;4981976;28;24970;-62
2021/11/17 07:13:34;;;;;;;39.42;27.40;;;;;;;;;;4980826;28;24457;-62
2021/11/17 07:16:02;;;;;;;35.37;25.27;;;;;;;;;;4980170;28;24965;-63
2021/11/17 07:18:28;;;;;;;37.85;27.27;;;;;;;;;;4975913;28;24409;-63
2021/11/17 07:20:53;;;;;;;35.63;25.73;;;;;;;;;;4982720;28;24460;-63
2021/11/17 07:23:19;;;;;;;37.43;25.80;;;;;;;;;;4996113;28;24458;-64
2021/11/17 07:25:45;;;;;;;40.55;27.48;;;;;;;;;;4978108;28;24499;-64
2021/11/17 07:28:11;;;;;;;38.20;26.00;;;;;;;;;;4981120;28;24425;-63
2021/11/17 07:30:41;;;;;;;39.78;27.35;;;;;;;;;;4978633;28;24420;-63
2021/11/17 07:33:07;;;;;;;36.05;25.02;;;;;;;;;;4981958;28;24432;-63
2021/11/17 07:35:37;;;;;;;36.28;26.20;;;;;;;;;;4979653;28;24846;-63
2021/11/17 07:38:05;;;;;;;38.60;26.52;;;;;;;;;;4979331;28;25045;-64
2021/11/17 07:40:32;;;;;;;34.60;24.67;;;;;;;;;;4976196;28;24429;-63
2021/11/17 07:42:57;;;;;;;35.97;25.70;;;;;;;;;;4981180;28;24887;-63
2021/11/17 07:45:23;;;;;;;33.93;23.93;;;;;;;;;;4980280;28;24520;-63
2021/11/17 07:47:48;;;;;;;35.43;24.93;;;;;;;;;;4984931;28;24551;-63
2021/11/17 07:50:14;;;;;;;35.67;26.00;;;;;;;;;;4981154;28;24456;-63
2021/11/17 07:52:39;;;;;;;38.50;26.77;;;;;;;;;;4978048;28;24945;-63
2021/11/17 07:55:05;;;;;;;34.30;24.80;;;;;;;;;;4976063;28;25150;-63
2021/11/17 07:57:30;;;;;;;37.40;26.20;;;;;;;;;;4984839;28;24432;-63
2021/11/17 07:59:57;;;;;;;34.37;24.87;;;;;;;;;;4978969;28;24807;-64
2021/11/17 08:02:23;;;;;;;36.80;25.93;;;;;;;;;;4975423;28;24681;-63
2021/11/17 08:04:49;;;;;;;31.95;23.55;;;;;;;;;;4974661;28;25095;-63
2021/11/17 08:07:18;;;;;;;37.42;25.30;;;;;;;;;;4977303;28;24417;-63
2021/11/17 08:09:44;;;;;;;34.85;24.63;;;;;;;;;;4983790;28;24421;-63
2021/11/17 08:12:10;;;;;;;38.67;26.13;;;;;;;;;;4985814;28;24459;-63
2021/11/17 08:14:35;;;;;;;36.45;25.63;;;;;;;;;;4989456;28;24851;-64
2021/11/17 08:17:01;;;;;;;38.13;26.50;;;;;;;;;;4991337;28;24496;-63
2021/11/17 08:19:26;;;;;;;37.53;25.15;;;;;;;;;;4966739;28;24421;-63
2021/11/17 08:21:51;;;;;;;36.90;24.83;;;;;;;;;;4984616;28;24436;-63
2021/11/17 08:24:16;;;;;;;31.83;24.00;;;;;;;;;;4982103;28;24508;-62
2021/11/17 08:26:41;;;;;;;33.63;24.70;;;;;;;;;;4983711;28;24419;-63
2021/11/17 08:29:09;;;;;;;36.30;25.50;;;;;;;;;;4983353;28;24511;-63
2021/11/17 08:31:34;;;;;;;34.97;24.48;;;;;;;;;;4986503;28;24936;-63
2021/11/17 08:33:59;;;;;;;35.47;24.90;;;;;;;;;;4982221;28;24501;-63
2021/11/17 08:36:27;;;;;;;35.83;24.93;;;;;;;;;;4980797;28;24771;-63
2021/11/17 08:38:54;;;;;;;35.83;25.60;;;;;;;;;;4982028;28;24463;-60
2021/11/17 08:41:21;;;;;;;37.90;24.80;;;;;;;;;;4981082;28;24776;-63
2021/11/17 08:43:46;;;;;;;36.00;25.07;;;;;;;;;;4985604;28;24416;-63
2021/11/17 08:46:11;;;;;;;36.55;26.20;;;;;;;;;;4985373;28;24421;-63
2021/11/17 08:48:37;;;;;;;32.87;24.43;;;;;;;;;;4978482;28;24452;-63
2021/11/17 08:51:03;;;;;;;35.73;24.30;;;;;;;;;;4977920;28;24812;-62
2021/11/17 08:53:31;;;;;;;36.72;25.67;;;;;;;;;;4981185;28;24544;-61
2021/11/17 08:55:57;;;;;;;34.95;25.13;;;;;;;;;;4988442;28;24435;-62
2021/11/17 08:58:22;;;;;;;39.47;26.30;;;;;;;;;;4990139;28;24983;-62
2021/11/17 09:00:48;;;;;;;33.23;24.67;;;;;;;;;;4995194;28;24522;-62
2021/11/17 09:03:14;;;;;;;31.55;24.52;;;;;;;;;;4982346;28;24562;-62
2021/11/17 09:05:42;;;;;;;34.85;25.23;;;;;;;;;;4979438;28;24692;-62
2021/11/17 09:08:08;;;;;;;31.27;23.73;;;;;;;;;;4987373;28;24971;-62
2021/11/17 09:10:35;;;;;;;35.38;24.45;;;;;;;;;;4990777;28;24433;-63
2021/11/17 09:13:01;;;;;;;36.13;25.27;;;;;;;;;;4979657;28;24420;-61
2021/11/17 09:15:28;;;;;;;33.65;24.67;;;;;;;;;;4983133;28;24425;-71
2021/11/17 09:17:53;;;;;;;37.80;25.70;;;;;;;;;;4983989;28;24496;-71
2021/11/17 09:20:19;;;;;;;36.40;25.35;;;;;;;;;;4980742;28;24906;-71
2021/11/17 09:22:45;;;;;;;35.63;25.40;;;;;;;;;;4986108;28;24402;-74
2021/11/17 09:25:11;;;;;;;33.63;25.20;;;;;;;;;;4980980;28;24508;-73
2021/11/17 09:27:37;;;;;;;35.22;25.58;;;;;;;;;;4976378;28;24445;-72
2021/11/17 09:30:03;;;;;;;36.90;26.20;;;;;;;;;;4977505;28;24448;-73
2021/11/17 09:32:31;;;;;;;34.23;24.53;;;;;;;;;;4979100;28;24514;-73
2021/11/17 09:34:57;;;;;;;37.05;26.45;;;;;;;;;;4984558;28;24471;-74
2021/11/17 09:37:24;;;;;;;38.25;25.92;;;;;;;;;;4982053;28;24989;-72
2021/11/17 09:39:52;;;;;;;39.17;27.40;;;;;;;;;;4978974;28;24487;-72
2021/11/17 09:42:17;;;;;;;35.15;25.25;;;;;;;;;;4977700;28;24962;-72
2021/11/17 09:44:43;;;;;;;35.77;26.07;;;;;;;;;;4978897;28;24432;-72
2021/11/17 09:47:11;;;;;;;36.85;26.27;;;;;;;;;;4982379;28;24397;-74
2021/11/17 09:49:42;;;;;;;37.90;26.80;;;;;;;;;;4979336;28;24396;-72
2021/11/17 09:52:09;;;;;;;38.80;26.13;;;;;;;;;;4978335;28;24425;-73
2021/11/17 09:54:50;;;;;;;40.08;27.50;;;;;;;;;;4977014;28;24519;-72
2021/11/17 09:57:22;;;;;;;39.53;26.65;;;;;;;;;;4982162;28;24520;-72
2021/11/17 09:59:56;;;;;;;36.75;26.83;;;;;;;;;;4982340;28;24408;-72
2021/11/17 10:02:37;;;;;;;36.53;25.70;;;;;;;;;;4978730;28;24405;-72
2021/11/17 10:05:02;;;;;;;37.83;26.55;;;;;;;;;;4976472;28;24477;-72
2021/11/17 10:10:16;;;;;;;36.13;25.48;;;;;;;;;;4980649;28;25009;-71
2021/11/17 10:12:50;;;;;;;38.83;27.77;;;;;;;;;;4977515;28;24914;-71
2021/11/17 10:15:19;;;;;;;36.47;25.42;;;;;;;;;;4978357;28;24455;-70
2021/11/17 10:17:48;;;;;;;40.25;28.27;;;;;;;;;;4980352;28;24405;-71
2021/11/17 10:20:16;;;;;;;37.83;26.23;;;;;;;;;;4981226;28;24457;-69
2021/11/17 10:22:43;;;;;;;38.60;27.90;;;;;;;;;;4978490;28;25199;-71
2021/11/17 10:25:13;;;;;;;42.40;29.00;;;;;;;;;;4978293;28;24451;-71
2021/11/17 10:27:46;;;;;;;39.13;28.45;;;;;;;;;;4982072;28;24456;-71
2021/11/17 10:30:15;;;;;;;44.13;29.10;;;;;;;;;;4982243;28;24935;-71
2021/11/17 10:32:46;;;;;;;40.45;27.23;;;;;;;;;;4978612;28;24420;-70
2021/11/17 10:35:13;;;;;;;40.20;28.63;;;;;;;;;;4978693;28;24705;-71
2021/11/17 10:37:38;;;;;;;41.90;28.47;;;;;;;;;;4981058;28;24460;-72
2021/11/17 10:40:09;;;;;;;39.58;27.67;;;;;;;;;;4982425;28;24409;-71
2021/11/17 10:42:36;;;;;;;39.58;27.90;;;;;;;;;;4976936;28;25272;-71
2021/11/17 10:45:04;;;;;;;37.13;26.83;;;;;;;;;;4976721;28;24410;-71
2021/11/17 10:47:29;;;;;;;36.55;26.83;;;;;;;;;;4979983;28;24420;-71
2021/11/17 10:50:03;;;;;;;37.75;25.55;;;;;;;;;;4982211;28;24563;-71
2021/11/17 10:52:32;;;;;;;38.70;26.85;;;;;;;;;;4976518;28;24407;-71
2021/11/17 10:55:00;;;;;;;37.40;26.17;;;;;;;;;;4976935;28;24719;-71
2021/11/17 10:57:27;;;;;;;40.92;28.23;;;;;;;;;;4976795;28;24915;-71
2021/11/17 10:59:55;;;;;;;39.08;27.90;;;;;;;;;;4982295;28;24412;-71
2021/11/17 11:02:22;;;;;;;38.03;27.13;;;;;;;;;;4980713;28;24393;-72
2021/11/17 11:04:53;;;;;;;36.75;26.25;;;;;;;;;;4976709;28;24456;-71
2021/11/17 11:07:21;;;;;;;37.55;26.25;;;;;;;;;;4978244;28;24755;-71
2021/11/17 11:09:49;;;;;;;34.13;23.95;;;;;;;;;;4978891;28;24426;-71
2021/11/17 11:12:15;;;;;;;37.08;25.80;;;;;;;;;;4981189;28;24830;-71
2021/11/17 11:14:53;;;;;;;33.42;23.92;;;;;;;;;;4981826;28;24389;-72
2021/11/17 11:17:30;;;;;;;34.10;24.20;;;;;;;;;;4978908;28;24401;-73
2021/11/17 11:20:14;;;;;;;29.70;20.35;;;;;;;;;;4979364;28;24484;-71
2021/11/17 11:22:59;;;;;;;27.08;17.50;;;;;;;;;;4979944;28;24389;-70
2021/11/17 11:25:36;;;;;;;17.60;12.70;;;;;;;;;;4983563;28;24467;-71
2021/11/17 11:28:19;;;;;;;17.63;13.07;;;;;;;;;;4983557;28;24417;-71
2021/11/17 11:30:44;;;;;;;13.27;10.90;;;;;;;;;;4981470;28;24504;-71
2021/11/17 11:33:21;;;;;;;11.80;9.47;;;;;;;;;;4982912;28;24556;-69
2021/11/17 11:36:20;;;;;;;11.18;8.70;;;;;;;;;;4984966;28;24934;-71
2021/11/17 11:38:47;;;;;;;9.52;7.82;;;;;;;;;;4981066;28;24433;-71
2021/11/17 11:41:18;;;;;;;10.80;8.77;;;;;;;;;;4981465;28;24543;-72
2021/11/17 11:43:44;;;;;;;9.65;8.32;;;;;;;;;;4979852;28;24850;-68
2021/11/17 11:46:24;;;;;;;8.55;7.40;;;;;;;;;;4981492;28;24943;-72
2021/11/17 11:48:54;;;;;;;7.38;6.50;;;;;;;;;;4985492;28;24406;-70
2021/11/17 11:51:21;;;;;;;6.83;5.83;;;;;;;;;;4981532;28;24520;-71
2021/11/17 11:54:08;;;;;;;8.77;6.22;;;;;;;;;;4979481;28;24421;-71
2021/11/17 11:56:48;;;;;;;6.78;6.15;;;;;;;;;;4978906;28;24953;-71
2021/11/17 11:59:15;;;;;;;8.68;7.20;;;;;;;;;;4980968;28;24416;-70
2021/11/17 12:01:40;;;;;;;8.15;7.18;;;;;;;;;;4984227;28;24965;-71
2021/11/17 12:04:19;;;;;;;7.47;6.77;;;;;;;;;;4983685;28;24409;-71
2021/11/17 12:06:55;;;;;;;6.78;6.00;;;;;;;;;;4979097;28;24443;-70
2021/11/17 12:09:33;;;;;;;6.70;6.10;;;;;;;;;;4979444;28;24405;-71
2021/11/17 12:12:00;;;;;;;7.00;6.30;;;;;;;;;;4984316;28;24888;-71
2021/11/17 12:14:31;;;;;;;6.53;5.87;;;;;;;;;;4982734;28;24612;-71
2021/11/17 12:16:57;;;;;;;7.68;6.40;;;;;;;;;;4979116;28;24433;-70
2021/11/17 12:19:30;;;;;;;6.53;5.88;;;;;;;;;;4979002;28;24448;-71
2021/11/17 12:22:11;;;;;;;6.90;6.20;;;;;;;;;;4978237;28;24940;-71
2021/11/17 12:24:38;;;;;;;6.32;5.72;;;;;;;;;;4982897;28;24961;-70
2021/11/17 12:27:17;;;;;;;8.90;7.83;;;;;;;;;;4984823;28;24404;-70
2021/11/17 12:29:45;;;;;;;10.75;9.65;;;;;;;;;;4977248;28;24460;-73
2021/11/17 12:32:25;;;;;;;7.35;6.55;;;;;;;;;;4980793;28;24389;-73
2021/11/17 12:35:06;;;;;;;6.37;5.70;;;;;;;;;;4980767;28;24982;-73
2021/11/17 12:37:34;;;;;;;6.97;6.15;;;;;;;;;;4982387;28;25053;-73
2021/11/17 12:39:59;;;;;;;9.57;8.68;;;;;;;;;;4983233;28;24821;-73
2021/11/17 12:42:27;;;;;;;9.07;8.17;;;;;;;;;;4980145;28;25094;-73
2021/11/17 12:45:15;;;;;;;9.05;7.65;;;;;;;;;;4979027;28;20762;-72
2021/11/17 12:47:46;;;;;;;9.48;7.80;;;;;;;;;;4978884;28;24440;-73
2021/11/17 12:50:14;;;;;;;7.97;7.18;;;;;;;;;;4983594;28;24405;-72
2021/11/17 12:52:45;;;;;;;7.20;6.50;;;;;;;;;;4979703;28;24824;-72
2021/11/17 12:55:10;;;;;;;8.07;7.27;;;;;;;;;;4979938;28;24529;-72
2021/11/17 12:57:48;;;;;;;6.80;6.10;;;;;;;;;;4978897;28;24437;-71
2021/11/17 13:00:13;;;;;;;6.10;5.50;;;;;;;;;;4983727;28;24436;-71
2021/11/17 13:02:44;;;;;;;6.68;6.07;;;;;;;;;;4979144;28;24394;-72
2021/11/17 13:05:15;;;;;;;6.20;5.15;;;;;;;;;;4980038;28;24439;-71
2021/11/17 13:07:47;;;;;;;5.40;4.90;;;;;;;;;;4980250;28;24464;-71
2021/11/17 13:10:42;;;;;;;5.65;5.15;;;;;;;;;;4981705;28;24413;-72
2021/11/17 13:13:19;;;;;;;6.63;5.80;;;;;;;;;;4972880;28;24931;-73
2021/11/17 13:15:53;;;;;;;5.63;5.13;;;;;;;;;;4978395;28;24449;-72
2021/11/17 13:18:23;;;;;;;6.00;5.40;;;;;;;;;;4978399;28;24429;-72
2021/11/17 13:20:49;;;;;;;6.30;5.60;;;;;;;;;;4977894;28;24436;-72
2021/11/17 13:23:15;;;;;;;5.38;4.88;;;;;;;;;;4981736;28;24934;-72
2021/11/17 13:25:50;;;;;;;5.70;5.20;;;;;;;;;;4983252;28;24470;-72
2021/11/17 13:28:33;;;;;;;5.88;5.38;;;;;;;;;;4977677;28;24409;-72
2021/11/17 13:31:19;;;;;;;6.22;5.63;;;;;;;;;;4977789;28;24552;-73
2021/11/17 13:34:11;;;;;;;5.72;5.10;;;;;;;;;;4977595;28;24431;-72
2021/11/17 13:36:39;;;;;;;6.10;5.50;;;;;;;;;;4978174;28;24431;-73
2021/11/17 13:39:04;;;;;;;7.40;6.60;;;;;;;;;;4982023;28;24409;-72
2021/11/17 13:41:30;;;;;;;6.80;6.20;;;;;;;;;;4980353;28;24783;-72
2021/11/17 13:43:55;;;;;;;6.60;6.00;;;;;;;;;;4977108;28;24413;-73
2021/11/17 13:46:20;;;;;;;7.43;6.35;;;;;;;;;;4980375;28;25287;-72
2021/11/17 13:48:47;;;;;;;6.20;5.60;;;;;;;;;;4982825;28;24472;-72
2021/11/17 13:51:14;;;;;;;6.40;5.80;;;;;;;;;;4981103;28;24427;-72
2021/11/17 13:53:40;;;;;;;7.75;6.50;;;;;;;;;;4978644;28;24472;-72
2021/11/17 13:56:10;;;;;;;9.48;7.10;;;;;;;;;;4977910;28;24449;-72
2021/11/17 13:58:36;;;;;;;7.80;7.00;;;;;;;;;;4983229;28;24472;-72
2021/11/17 14:01:02;;;;;;;7.40;6.60;;;;;;;;;;4982856;28;24979;-73
2021/11/17 14:03:27;;;;;;;7.07;6.38;;;;;;;;;;4977334;28;24451;-72
2021/11/17 14:05:53;;;;;;;7.80;6.20;;;;;;;;;;4977254;28;24421;-73
2021/11/17 14:08:19;;;;;;;6.13;5.50;;;;;;;;;;4981206;28;24979;-72
2021/11/17 14:10:44;;;;;;;6.47;5.90;;;;;;;;;;4982847;28;24462;-71
2021/11/17 14:13:09;;;;;;;6.40;5.80;;;;;;;;;;4979575;28;24919;-71
2021/11/17 14:15:35;;;;;;;5.70;5.30;;;;;;;;;;4977047;28;24826;-72
2021/11/17 14:18:01;;;;;;;6.40;5.80;;;;;;;;;;4980206;28;24404;-71
2021/11/17 14:20:26;;;;;;;5.97;5.47;;;;;;;;;;4980829;28;24452;-72
2021/11/17 14:22:52;;;;;;;6.17;5.43;;;;;;;;;;4979804;28;24476;-71
2021/11/17 14:25:20;;;;;;;7.23;6.37;;;;;;;;;;4979178;28;24397;-71
2021/11/17 14:27:47;;;;;;;5.53;5.03;;;;;;;;;;4982499;28;24931;-70
2021/11/17 14:30:21;;;;;;;5.55;4.82;;;;;;;;;;4980612;28;24466;-72
2021/11/17 14:32:47;;;;;;;5.40;4.90;;;;;;;;;;4979062;28;24396;-71
2021/11/17 14:35:13;;;;;;;5.22;4.72;;;;;;;;;;4978953;28;24451;-71
2021/11/17 14:37:39;;;;;;;5.70;5.10;;;;;;;;;;4982001;28;24412;-71
2021/11/17 14:40:05;;;;;;;5.05;4.63;;;;;;;;;;4980570;28;24401;-71
2021/11/17 14:42:30;;;;;;;5.60;4.70;;;;;;;;;;4977322;28;24965;-71
2021/11/17 14:44:55;;;;;;;5.70;5.20;;;;;;;;;;4977070;28;24700;-72
2021/11/17 14:47:21;;;;;;;6.10;5.50;;;;;;;;;;4978930;28;24412;-72
2021/11/17 14:49:46;;;;;;;5.13;4.63;;;;;;;;;;4981874;28;24428;-72
2021/11/17 14:52:13;;;;;;;4.53;4.13;;;;;;;;;;4984304;28;24416;-72
2021/11/17 14:54:39;;;;;;;6.07;5.50;;;;;;;;;;4981861;28;24421;-72
2021/11/17 14:57:04;;;;;;;5.97;5.38;;;;;;;;;;4980978;28;25015;-72
2021/11/17 14:59:30;;;;;;;6.47;5.97;;;;;;;;;;4996407;28;24877;-71
2021/11/17 15:01:55;;;;;;;6.30;5.80;;;;;;;;;;4985971;28;24417;-72
2021/11/17 15:04:20;;;;;;;5.90;5.40;;;;;;;;;;4981144;28;24942;-73
2021/11/17 15:06:45;;;;;;;5.50;5.00;;;;;;;;;;4982281;28;24412;-72
2021/11/17 15:09:11;;;;;;;5.20;4.70;;;;;;;;;;4983614;28;24405;-72
2021/11/17 15:11:53;;;;;;;5.00;4.60;;;;;;;;;;4984536;28;24472;-73
2021/11/17 15:14:22;;;;;;;5.13;4.63;;;;;;;;;;4980127;28;24488;-72
2021/11/17 15:16:48;;;;;;;6.00;5.30;;;;;;;;;;4982264;28;24409;-72
2021/11/17 15:19:13;;;;;;;5.38;4.90;;;;;;;;;;4984592;28;24420;-73
2021/11/17 15:21:39;;;;;;;4.70;4.30;;;;;;;;;;4982772;28;24429;-72
2021/11/17 15:24:10;;;;;;;5.40;4.90;;;;;;;;;;4980653;28;24492;-72
2021/11/17 15:26:45;;;;;;;5.40;4.90;;;;;;;;;;4979439;28;24459;-72
2021/11/17 15:29:11;;;;;;;4.88;4.47;;;;;;;;;;4982918;28;24409;-75
2021/11/17 15:31:36;;;;;;;4.75;4.40;;;;;;;;;;4983942;28;24832;-73
2021/11/17 15:34:02;;;;;;;4.90;4.50;;;;;;;;;;4981789;28;24487;-73
2021/11/17 15:36:28;;;;;;;5.30;4.80;;;;;;;;;;4979571;28;24405;-72
2021/11/17 15:38:53;;;;;;;5.10;4.70;;;;;;;;;;4983744;28;24397;-73
2021/11/17 15:41:24;;;;;;;4.73;4.33;;;;;;;;;;4984444;28;24421;-72
2021/11/17 15:43:50;;;;;;;6.00;5.13;;;;;;;;;;4980859;28;24397;-77
2021/11/17 15:46:22;;;;;;;5.57;5.10;;;;;;;;;;4979911;28;24747;-72
2021/11/17 15:48:47;;;;;;;5.50;5.00;;;;;;;;;;4981034;28;24390;-74
2021/11/17 15:51:21;;;;;;;5.60;5.10;;;;;;;;;;4982124;28;24412;-72
2021/11/17 15:53:47;;;;;;;5.30;4.80;;;;;;;;;;4984510;28;24947;-73
2021/11/17 15:56:15;;;;;;;5.20;4.70;;;;;;;;;;4979911;28;24404;-74
2021/11/17 15:58:41;;;;;;;5.03;4.63;;;;;;;;;;4979356;28;24397;-72
2021/11/17 16:01:07;;;;;;;5.33;4.93;;;;;;;;;;4985053;28;24435;-72
2021/11/17 16:03:33;;;;;;;6.15;5.55;;;;;;;;;;4981678;28;24485;-72
2021/11/17 16:06:03;;;;;;;4.93;4.53;;;;;;;;;;4979226;28;24874;-73
2021/11/17 16:08:29;;;;;;;4.60;4.20;;;;;;;;;;4978913;28;24389;-73
2021/11/17 16:10:57;;;;;;;5.60;5.05;;;;;;;;;;4982770;28;24404;-72
2021/11/17 16:13:30;;;;;;;5.38;4.88;;;;;;;;;;4983361;28;24412;-72
2021/11/17 16:15:56;;;;;;;5.38;4.93;;;;;;;;;;4982388;28;25422;-73
2021/11/17 16:18:21;;;;;;;6.30;5.80;;;;;;;;;;4979347;28;24500;-73
2021/11/17 16:20:53;;;;;;;7.60;5.83;;;;;;;;;;4981055;28;24420;-73
2021/11/17 16:25:47;;;;;;;5.70;5.20;;;;;;;;;;4985001;28;24389;-73
2021/11/17 16:28:18;;;;;;;6.13;5.63;;;;;;;;;;4982600;28;24958;-74
2021/11/17 16:30:44;;;;;;;5.80;5.30;;;;;;;;;;4978536;28;24847;-73
2021/11/17 16:33:11;;;;;;;5.22;4.82;;;;;;;;;;4978172;28;24447;-74
2021/11/17 16:35:36;;;;;;;6.57;6.07;;;;;;;;;;4977168;28;24417;-72
2021/11/17 16:38:02;;;;;;;6.60;6.00;;;;;;;;;;4983515;28;24471;-71
2021/11/17 16:40:29;;;;;;;5.80;5.30;;;;;;;;;;4982046;28;24441;-72
2021/11/17 16:42:54;;;;;;;7.07;6.47;;;;;;;;;;4979775;28;24536;-71
2021/11/17 16:45:20;;;;;;;8.60;7.90;;;;;;;;;;4978940;28;24393;-72
2021/11/17 16:47:45;;;;;;;7.70;7.00;;;;;;;;;;4980627;28;25005;-73
2021/11/17 16:50:11;;;;;;;7.10;6.50;;;;;;;;;;4979984;28;24444;-72
2021/11/17 16:52:39;;;;;;;7.23;6.63;;;;;;;;;;4983879;28;24474;-72
2021/11/17 16:55:09;;;;;;;6.20;5.70;;;;;;;;;;4980450;28;24441;-73
2021/11/17 16:57:34;;;;;;;6.30;5.80;;;;;;;;;;4978512;28;24922;-73
2021/11/17 17:00:00;;;;;;;7.45;6.60;;;;;;;;;;4976734;28;24463;-73
2021/11/17 17:02:27;;;;;;;7.00;6.40;;;;;;;;;;4981998;28;24416;-73
2021/11/17 17:04:52;;;;;;;7.23;6.53;;;;;;;;;;4983323;28;24564;-73
2021/11/17 17:07:19;;;;;;;6.60;6.00;;;;;;;;;;4978644;28;25133;-73
2021/11/17 17:09:46;;;;;;;5.90;5.40;;;;;;;;;;4977825;28;24401;-73
2021/11/17 17:12:11;;;;;;;5.38;4.97;;;;;;;;;;4979831;28;24755;-73
2021/11/17 17:14:36;;;;;;;6.50;6.00;;;;;;;;;;4981259;28;24417;-73